sensor_id;sensor_type;location;lat;lon;timestamp;pressure;altitude;pressure_sealevel;temperature;humidity
43683;BME280;29285;52.128;21.060;2023-01-16T13:57:02;98768.61;;;5.32;100.00
43683;BME280;29285;52.128;21.060;2023-01-16T14:13:23;98747.63;;;5.33;100.00
43683;BME280;29285;52.128;21.060;2023-01-16T14:18:37;98743.05;;;5.29;100.00
43683;BME280;29285;52.128;21.060;2023-01-16T14:23:40;98735.78;;;5.23;100.00
43683;BME280;29285;52.128;21.060;2023-01-16T14:29:25;98722.90;;;5.21;100.00
43683;BME280;29285;52.128;21.060;2023-01-16T14:34:33;98724.15;;;5.19;100.00
43683;BME280;29285;52.128;21.060;2023-01-16T14:39:38;98725.28;;;5.14;100.00
43683;BME280;29285;52.128;21.060;2023-01-16T14:50:43;98718.85;;;5.09;100.00
43683;BME280;29285;52.128;21.060;2023-01-16T14:56:10;98712.63;;;5.10;100.00
43683;BME280;29285;52.128;21.060;2023-01-16T15:01:47;98705.48;;;5.07;100.00
43683;BME280;29285;52.128;21.060;2023-01-16T15:07:09;98695.05;;;5.04;100.00
43683;BME280;29285;52.128;21.060;2023-01-16T15:12:15;98692.48;;;5.04;100.00
43683;BME280;29285;52.128;21.060;2023-01-16T15:17:37;98684.94;;;5.02;100.00
43683;BME280;29285;52.128;21.060;2023-01-16T15:23:01;98683.63;;;4.99;100.00
43683;BME280;29285;52.128;21.060;2023-01-16T15:28:16;98678.37;;;4.96;100.00
43683;BME280;29285;52.128;21.060;2023-01-16T15:33:23;98673.77;;;4.94;100.00
43683;BME280;29285;52.128;21.060;2023-01-16T15:38:45;98668.84;;;4.90;100.00
43683;BME280;29285;52.128;21.060;2023-01-16T15:43:47;98653.05;;;4.89;100.00
43683;BME280;29285;52.128;21.060;2023-01-16T15:49:27;98649.10;;;4.90;100.00
43683;BME280;29285;52.128;21.060;2023-01-16T15:54:32;98643.41;;;4.90;100.00
43683;BME280;29285;52.128;21.060;2023-01-16T15:59:35;98637.65;;;4.86;100.00
43683;BME280;29285;52.128;21.060;2023-01-16T16:04:36;98626.55;;;4.82;100.00
43683;BME280;29285;52.128;21.060;2023-01-16T16:09:39;98626.02;;;4.83;100.00
43683;BME280;29285;52.128;21.060;2023-01-16T16:14:43;98616.20;;;4.85;100.00
43683;BME280;29285;52.128;21.060;2023-01-16T16:25:30;98601.99;;;4.82;100.00
43683;BME280;29285;52.128;21.060;2023-01-16T16:30:33;98590.85;;;4.80;100.00
43683;BME280;29285;52.128;21.060;2023-01-16T16:35:35;98588.65;;;4.78;100.00
43683;BME280;29285;52.128;21.060;2023-01-16T16:40:37;98582.77;;;4.80;100.00
43683;BME280;29285;52.128;21.060;2023-01-16T16:45:39;98574.26;;;4.85;100.00
43683;BME280;29285;52.128;21.060;2023-01-16T16:50:41;98562.84;;;4.88;100.00
43683;BME280;29285;52.128;21.060;2023-01-16T16:55:47;98547.98;;;4.93;100.00
43683;BME280;29285;52.128;21.060;2023-01-16T17:00:50;98541.07;;;4.95;100.00
43683;BME280;29285;52.128;21.060;2023-01-16T17:05:56;98533.29;;;4.97;100.00
43683;BME280;29285;52.128;21.060;2023-01-16T17:10:57;98528.98;;;4.97;100.00
43683;BME280;29285;52.128;21.060;2023-01-16T17:15:59;98519.24;;;4.95;100.00
43683;BME280;29285;52.128;21.060;2023-01-16T17:21:01;98515.52;;;4.92;100.00
43683;BME280;29285;52.128;21.060;2023-01-16T17:26:03;98509.48;;;4.93;100.00
43683;BME280;29285;52.128;21.060;2023-01-16T17:31:06;98496.04;;;4.95;100.00
43683;BME280;29285;52.128;21.060;2023-01-16T17:36:31;98480.52;;;4.96;100.00
43683;BME280;29285;52.128;21.060;2023-01-16T17:41:35;98463.04;;;4.95;100.00
43683;BME280;29285;52.128;21.060;2023-01-16T17:46:59;98450.30;;;4.95;100.00
43683;BME280;29285;52.128;21.060;2023-01-16T17:52:01;98440.17;;;4.95;100.00
43683;BME280;29285;52.128;21.060;2023-01-16T17:57:02;98437.00;;;4.91;100.00
43683;BME280;29285;52.128;21.060;2023-01-16T18:02:06;98425.48;;;4.91;100.00
43683;BME280;29285;52.128;21.060;2023-01-16T18:07:09;98419.79;;;4.93;100.00
43683;BME280;29285;52.128;21.060;2023-01-16T18:12:10;98409.29;;;4.93;100.00
43683;BME280;29285;52.128;21.060;2023-01-16T18:17:31;98406.52;;;4.94;100.00
43683;BME280;29285;52.128;21.060;2023-01-16T18:22:35;98401.53;;;4.94;100.00
43683;BME280;29285;52.128;21.060;2023-01-16T18:27:36;98397.86;;;4.97;100.00
43683;BME280;29285;52.128;21.060;2023-01-16T18:32:38;98389.42;;;4.98;100.00
43683;BME280;29285;52.128;21.060;2023-01-16T18:37:44;98381.50;;;4.98;100.00
43683;BME280;29285;52.128;21.060;2023-01-16T18:43:22;98377.40;;;4.97;100.00
43683;BME280;29285;52.128;21.060;2023-01-16T18:48:42;98362.08;;;4.98;100.00
43683;BME280;29285;52.128;21.060;2023-01-16T18:54:11;98353.20;;;4.95;100.00
43683;BME280;29285;52.128;21.060;2023-01-16T18:59:33;98341.19;;;4.95;100.00
43683;BME280;29285;52.128;21.060;2023-01-16T19:04:54;98323.64;;;4.95;100.00
43683;BME280;29285;52.128;21.060;2023-01-16T19:09:59;98318.91;;;4.99;100.00
43683;BME280;29285;52.128;21.060;2023-01-16T19:15:03;98312.48;;;5.02;100.00
43683;BME280;29285;52.128;21.060;2023-01-16T19:20:05;98314.48;;;5.04;100.00
43683;BME280;29285;52.128;21.060;2023-01-16T19:25:07;98301.56;;;5.05;100.00
43683;BME280;29285;52.128;21.060;2023-01-16T19:30:09;98291.49;;;5.09;100.00
43683;BME280;29285;52.128;21.060;2023-01-16T19:35:11;98283.34;;;5.12;100.00
43683;BME280;29285;52.128;21.060;2023-01-16T19:40:14;98267.70;;;5.12;100.00
43683;BME280;29285;52.128;21.060;2023-01-16T19:45:16;98250.21;;;5.10;100.00
43683;BME280;29285;52.128;21.060;2023-01-16T19:50:37;98242.48;;;5.10;100.00
43683;BME280;29285;52.128;21.060;2023-01-16T19:55:39;98228.83;;;5.13;100.00
43683;BME280;29285;52.128;21.060;2023-01-16T20:00:41;98224.61;;;5.10;100.00
43683;BME280;29285;52.128;21.060;2023-01-16T20:05:45;98208.90;;;5.06;100.00
43683;BME280;29285;52.128;21.060;2023-01-16T20:10:50;98206.46;;;5.07;100.00
43683;BME280;29285;52.128;21.060;2023-01-16T20:15:51;98191.42;;;5.10;100.00
43683;BME280;29285;52.128;21.060;2023-01-16T20:20:53;98181.25;;;5.11;100.00
43683;BME280;29285;52.128;21.060;2023-01-16T20:26:00;98169.77;;;5.10;100.00
43683;BME280;29285;52.128;21.060;2023-01-16T20:31:06;98164.75;;;5.11;100.00
43683;BME280;29285;52.128;21.060;2023-01-16T20:36:08;98153.02;;;5.13;100.00
43683;BME280;29285;52.128;21.060;2023-01-16T20:41:14;98141.02;;;5.12;100.00
43683;BME280;29285;52.128;21.060;2023-01-16T20:46:37;98125.74;;;5.11;100.00
43683;BME280;29285;52.128;21.060;2023-01-16T20:51:39;98115.72;;;5.13;100.00
43683;BME280;29285;52.128;21.060;2023-01-16T20:56:41;98109.32;;;5.14;100.00
43683;BME280;29285;52.128;21.060;2023-01-16T21:01:42;98097.51;;;5.13;100.00
43683;BME280;29285;52.128;21.060;2023-01-16T21:06:47;98086.20;;;5.11;100.00
43683;BME280;29285;52.128;21.060;2023-01-16T21:11:49;98078.65;;;5.05;100.00
43683;BME280;29285;52.128;21.060;2023-01-16T21:17:10;98061.84;;;5.04;100.00
43683;BME280;29285;52.128;21.060;2023-01-16T21:22:33;98052.59;;;5.03;100.00
43683;BME280;29285;52.128;21.060;2023-01-16T21:27:35;98047.30;;;5.01;100.00
43683;BME280;29285;52.128;21.060;2023-01-16T21:32:36;98042.81;;;5.02;100.00
43683;BME280;29285;52.128;21.060;2023-01-16T21:37:38;98039.95;;;5.06;100.00
43683;BME280;29285;52.128;21.060;2023-01-16T21:42:41;98036.38;;;5.10;100.00
43683;BME280;29285;52.128;21.060;2023-01-16T21:48:04;98023.98;;;5.10;100.00
43683;BME280;29285;52.128;21.060;2023-01-16T21:53:07;98018.19;;;5.09;100.00
43683;BME280;29285;52.128;21.060;2023-01-16T21:58:09;98009.44;;;5.09;100.00
43683;BME280;29285;52.128;21.060;2023-01-16T22:03:11;98006.19;;;5.08;100.00
43683;BME280;29285;52.128;21.060;2023-01-16T22:08:12;97996.60;;;5.07;100.00
43683;BME280;29285;52.128;21.060;2023-01-16T22:13:14;97991.35;;;5.04;100.00
43683;BME280;29285;52.128;21.060;2023-01-16T22:18:42;97981.33;;;5.00;100.00
43683;BME280;29285;52.128;21.060;2023-01-16T22:23:44;97976.06;;;4.98;100.00
43683;BME280;29285;52.128;21.060;2023-01-16T22:28:45;97971.75;;;4.94;100.00
43683;BME280;29285;52.128;21.060;2023-01-16T22:33:47;97961.50;;;4.91;100.00
43683;BME280;29285;52.128;21.060;2023-01-16T22:38:49;97959.58;;;4.93;100.00
43683;BME280;29285;52.128;21.060;2023-01-16T22:43:50;97961.87;;;4.91;100.00
43683;BME280;29285;52.128;21.060;2023-01-16T22:49:11;97951.81;;;4.94;100.00
43683;BME280;29285;52.128;21.060;2023-01-16T22:54:12;97948.24;;;4.93;100.00
43683;BME280;29285;52.128;21.060;2023-01-16T22:59:14;97941.96;;;4.89;100.00
43683;BME280;29285;52.128;21.060;2023-01-16T23:04:16;97938.22;;;4.88;100.00
43683;BME280;29285;52.128;21.060;2023-01-16T23:09:17;97929.16;;;4.87;100.00
43683;BME280;29285;52.128;21.060;2023-01-16T23:14:21;97920.52;;;4.83;100.00
43683;BME280;29285;52.128;21.060;2023-01-16T23:19:27;97915.82;;;4.80;100.00
43683;BME280;29285;52.128;21.060;2023-01-16T23:24:31;97912.02;;;4.80;100.00
43683;BME280;29285;52.128;21.060;2023-01-16T23:29:34;97906.14;;;4.81;100.00
43683;BME280;29285;52.128;21.060;2023-01-16T23:34:36;97901.44;;;4.78;100.00
43683;BME280;29285;52.128;21.060;2023-01-16T23:39:38;97895.17;;;4.75;100.00
43683;BME280;29285;52.128;21.060;2023-01-16T23:44:40;97891.02;;;4.76;100.00
43683;BME280;29285;52.128;21.060;2023-01-16T23:49:47;97881.48;;;4.73;100.00
43683;BME280;29285;52.128;21.060;2023-01-16T23:54:51;97877.04;;;4.73;100.00
43683;BME280;29285;52.128;21.060;2023-01-16T23:59:54;97866.67;;;4.74;100.00
